Terminal Aerodrome Forecast
Issued by NWS

Home | Current Version | Previous Version | Text Only | Print | Product List | Glossary On
Versions: 1 2 3 4 5 6 7 8 9 10 11 12 13
000
FTUS43 KMQT 240521
TAFSAW
TAF
KSAW 240521Z 2406/2506 20011G19KT P6SM VCSH BKN050 WS020/22040KT
     FM240800 21014G24KT P6SM BKN090 WS020/23050KT
     FM241400 22014KT P6SM BKN120 WS020/25050KT
     FM241600 22013KT P6SM VCSH BKN080
     FM241900 22011KT P6SM -SHRA BKN060
     FM242000 23010KT 6SM -SHRA BKN045
     FM242300 25009KT 4SM -SHRA BR BKN015
     FM250000 26009KT P6SM BKN010
     FM250300 28010KT P6SM BKN020=

USA.gov is the U.S. government's official web portal to all federal, state and local government web resources and services.